Time;durP1;ratioP1;P1;durP2;ratioP2;P2;SDS_P1;SDS_P2;PMS_P1;PMS_P2;Temp;Humidity;BMP_temperature;BMP_pressure;BME280_temperature;BME280_humidity;BME280_pressure;Samples;Min_cycle;Max_cycle;Signal;HPM_P1;HPM_P2
2023/10/07 00:02:12;;;;;;;;;;;;;;;27.49;43.51;95129.56;4992216;28;7156;-61
2023/10/07 00:04:47;;;;;;;;;;;;;;;27.49;43.33;95129.56;5002269;28;9095;-56
2023/10/07 00:07:30;;;;;;;;;;;;;;;27.49;43.28;95124.03;4969056;28;8724;-56
2023/10/07 00:10:03;;;;;;;;;;;;;;;27.43;43.53;95123.31;5017345;28;9185;-56
2023/10/07 00:13:09;;;;;;;;;;;;;;;27.48;43.39;95127.31;5068775;28;7221;-56
2023/10/07 00:15:43;;;;;;;;;;;;;;;27.46;43.24;95121.56;4990218;28;7320;-56
2023/10/07 00:18:24;;;;;;;;;;;;;;;27.47;43.29;95123.78;4990902;28;7239;-56
2023/10/07 00:20:54;;;;;;;;;;;;;;;27.44;43.52;95111.00;5019705;28;7759;-56
2023/10/07 00:23:22;;;;;;;;;;;;;;;27.48;43.44;95121.78;5004598;28;7240;-56
2023/10/07 00:26:22;;;;;;;;;;;;;;;27.46;43.88;95118.78;5013589;28;7000;-56
2023/10/07 00:29:04;;;;;;;;;;;;;;;27.43;42.94;95120.53;4951872;28;8749;-56
2023/10/07 00:31:58;;;;;;;;;;;;;;;27.44;43.25;95122.06;4949910;28;7343;-56
2023/10/07 00:34:45;;;;;;;;;;;;;;;27.42;43.25;95116.28;4940072;28;6992;-56
2023/10/07 00:37:24;;;;;;;;;;;;;;;27.44;43.47;95124.06;4938735;28;9053;-56
2023/10/07 00:39:53;;;;;;;;;;;;;;;27.41;43.01;95117.53;4955461;28;7272;-56
2023/10/07 00:42:33;;;;;;;;;;;;;;;27.38;43.20;95107.50;4944932;28;7307;-56
2023/10/07 00:45:21;;;;;;;;;;;;;;;27.40;43.51;95113.28;4940882;28;7051;-56
2023/10/07 00:47:49;;;;;;;;;;;;;;;27.41;43.42;95114.00;4936998;28;9113;-56
2023/10/07 00:50:19;;;;;;;;;;;;;;;27.39;43.52;95117.28;4981455;28;8756;-57
2023/10/07 00:52:56;;;;;;;;;;;;;;;27.39;43.21;95113.78;5015987;28;9635;-56
2023/10/07 00:55:34;;;;;;;;;;;;;;;27.38;43.27;95117.81;4999862;28;7192;-56
2023/10/07 01:08:50;;;;;;;;;;;;;;;27.37;43.47;95111.53;5097588;28;7277;-56
2023/10/07 01:11:23;;;;;;;;;;;;;;;27.34;43.17;95098.69;5075385;28;9196;-56
2023/10/07 01:13:52;;;;;;;;;;;;;;;27.37;42.85;95110.75;5071744;28;7229;-61
2023/10/07 01:21:53;;;;;;;;;;;;;;;27.37;43.61;95108.75;5076129;28;7219;-61
2023/10/07 01:27:18;;;;;;;;;;;;;;;27.36;43.16;95093.44;5073768;28;7395;-61
2023/10/07 01:29:50;;;;;;;;;;;;;;;27.35;43.28;95097.47;5061888;28;7331;-61
2023/10/07 01:32:22;;;;;;;;;;;;;;;27.38;43.09;95095.72;5089019;28;7083;-60
2023/10/07 01:35:11;;;;;;;;;;;;;;;27.38;43.04;95096.44;5070165;28;7091;-61
2023/10/07 01:37:51;;;;;;;;;;;;;;;27.37;43.60;95091.44;5055053;28;7264;-60
2023/10/07 01:40:18;;;;;;;;;;;;;;;27.36;43.12;95092.69;5065065;28;7276;-61
2023/10/07 01:42:46;;;;;;;;;;;;;;;27.35;43.76;95083.66;5060557;28;7263;-61
2023/10/07 01:45:20;;;;;;;;;;;;;;;27.36;43.17;95087.19;5058564;28;9058;-61
2023/10/07 01:48:17;;;;;;;;;;;;;;;27.36;43.43;95082.38;5080858;28;9142;-60
2023/10/07 01:50:51;;;;;;;;;;;;;;;27.32;43.15;95076.34;5062024;28;6988;-60
2023/10/07 01:53:31;;;;;;;;;;;;;;;27.35;43.20;95071.81;5070169;28;7333;-61
2023/10/07 01:56:04;;;;;;;;;;;;;;;27.33;43.20;95077.84;5072017;28;9121;-61
2023/10/07 01:58:36;;;;;;;;;;;;;;;27.34;43.19;95076.59;5084741;28;7234;-61
2023/10/07 02:01:16;;;;;;;;;;;;;;;27.34;43.54;95068.28;5063387;28;7215;-61
2023/10/07 02:03:50;;;;;;;;;;;;;;;27.33;43.21;95075.09;5071023;28;8931;-61
2023/10/07 02:06:51;;;;;;;;;;;;;;;27.33;43.31;95066.81;5073710;28;6895;-61
2023/10/07 02:09:40;;;;;;;;;;;;;;;27.32;43.06;95076.34;5017365;28;7461;-61
2023/10/07 02:12:18;;;;;;;;;;;;;;;27.31;43.06;95079.63;4997975;28;7040;-61
2023/10/07 02:14:45;;;;;;;;;;;;;;;27.31;42.68;95085.13;5014832;28;7231;-60
2023/10/07 02:17:25;;;;;;;;;;;;;;;27.29;42.91;95085.66;4994994;28;8534;-61
2023/10/07 02:20:24;;;;;;;;;;;;;;;27.30;42.69;95080.84;5009421;28;7397;-61
2023/10/07 02:22:51;;;;;;;;;;;;;;;27.29;42.84;95085.66;4968127;28;8831;-61
2023/10/07 02:25:29;;;;;;;;;;;;;;;27.25;42.62;95081.66;4947322;28;7223;-61
2023/10/07 02:27:55;;;;;;;;;;;;;;;27.26;42.41;95086.66;4939484;28;7053;-61
2023/10/07 02:30:25;;;;;;;;;;;;;;;27.25;42.10;95079.59;4971006;28;7447;-61
2023/10/07 02:33:21;;;;;;;;;;;;;;;27.24;42.25;95080.88;4955424;28;7074;-61
2023/10/07 02:35:58;;;;;;;;;;;;;;;27.22;42.22;95079.88;4957117;28;8720;-61
2023/10/07 02:38:37;;;;;;;;;;;;;;;27.22;42.21;95077.13;4970980;28;7184;-61
2023/10/07 02:41:17;;;;;;;;;;;;;;;27.24;42.36;95080.88;4973253;28;8827;-61
2023/10/07 02:44:10;;;;;;;;;;;;;;;27.22;42.46;95083.41;4956284;28;8732;-61
2023/10/07 02:46:36;;;;;;;;;;;;;;;27.23;42.28;95092.44;5004990;28;8678;-61
2023/10/07 02:49:14;;;;;;;;;;;;;;;27.21;42.22;95087.41;5031639;28;9061;-61
2023/10/07 02:51:47;;;;;;;;;;;;;;;27.23;42.50;95086.94;5002609;28;7209;-61
2023/10/07 02:55:14;;;;;;;;;;;;;;;27.22;42.29;95077.88;5022656;28;7040;-61
2023/10/07 02:58:01;;;;;;;;;;;;;;;27.23;42.41;95073.84;5025850;28;9083;-61
2023/10/07 03:00:52;;;;;;;;;;;;;;;27.20;42.46;95066.59;5071163;28;7233;-61
2023/10/07 03:05:58;;;;;;;;;;;;;;;27.20;42.41;95074.88;5062968;28;6999;-61
2023/10/07 03:09:01;;;;;;;;;;;;;;;27.21;41.97;95081.88;5044111;28;7213;-61
2023/10/07 03:11:40;;;;;;;;;;;;;;;27.19;42.45;95083.63;5045127;28;7253;-61
2023/10/07 03:14:36;;;;;;;;;;;;;;;27.22;42.37;95082.66;5045293;28;7260;-61
2023/10/07 03:17:16;;;;;;;;;;;;;;;27.21;42.41;95086.69;5041364;28;7137;-61
2023/10/07 03:19:58;;;;;;;;;;;;;;;27.21;42.46;95081.88;5046210;28;9189;-61
2023/10/07 03:22:28;;;;;;;;;;;;;;;27.21;42.44;95086.69;5063566;28;7274;-61
2023/10/07 03:25:00;;;;;;;;;;;;;;;27.20;42.58;95082.41;5064224;28;7116;-61
2023/10/07 03:27:39;;;;;;;;;;;;;;;27.19;42.70;95069.84;5041454;28;7081;-61
2023/10/07 03:30:12;;;;;;;;;;;;;;;27.15;42.59;95077.63;5053356;28;9410;-61
2023/10/07 03:32:56;;;;;;;;;;;;;;;27.19;42.27;95083.63;5057027;28;7227;-61
2023/10/07 03:35:36;;;;;;;;;;;;;;;27.19;42.35;95080.88;5063475;28;7188;-61
2023/10/07 03:38:09;;;;;;;;;;;;;;;27.16;42.84;95073.63;5053254;28;9617;-61
2023/10/07 03:40:59;;;;;;;;;;;;;;;27.18;42.59;95077.38;5067631;28;7072;-61
2023/10/07 03:43:59;;;;;;;;;;;;;;;27.19;42.76;95078.88;5052890;28;7030;-61
2023/10/07 03:46:41;;;;;;;;;;;;;;;27.16;42.63;95077.16;4993157;28;7259;-61
2023/10/07 03:49:40;;;;;;;;;;;;;;;27.17;42.64;95080.63;5003047;28;8781;-61
2023/10/07 03:52:08;;;;;;;;;;;;;;;27.16;42.06;95085.44;4951691;29;7465;-61
2023/10/07 03:54:35;;;;;;;;;;;;;;;27.14;42.51;95070.63;4950061;29;9064;-61
2023/10/07 03:57:07;;;;;;;;;;;;;;;27.13;42.51;95069.09;4950471;29;8196;-61
2023/10/07 03:59:42;;;;;;;;;;;;;;;27.11;42.49;95068.84;4933349;29;7210;-61
2023/10/07 04:05:09;;;;;;;;;;;;;;;27.14;42.87;95078.91;4950164;29;7189;-61
2023/10/07 04:07:37;;;;;;;;;;;;;;;27.15;42.62;95074.88;4936471;29;7063;-61
2023/10/07 04:10:36;;;;;;;;;;;;;;;27.12;42.68;95079.38;4952394;29;7238;-61
2023/10/07 04:13:21;;;;;;;;;;;;;;;27.13;42.72;95083.66;4952024;29;7396;-61
2023/10/07 04:15:58;;;;;;;;;;;;;;;27.12;42.62;95082.16;4936154;29;8866;-61
2023/10/07 04:18:37;;;;;;;;;;;;;;;27.12;42.86;95089.69;4936393;29;7795;-61
2023/10/07 04:21:21;;;;;;;;;;;;;;;27.12;42.41;95078.66;4924360;28;7451;-61
2023/10/07 04:23:47;;;;;;;;;;;;;;;27.11;42.89;95088.94;4975938;28;8422;-61
2023/10/07 04:26:19;;;;;;;;;;;;;;;27.07;43.00;95085.69;4985374;28;7370;-61
2023/10/07 04:28:48;;;;;;;;;;;;;;;27.10;42.94;95087.41;5027175;28;7209;-61
2023/10/07 04:31:29;;;;;;;;;;;;;;;27.07;43.14;95093.97;5057912;28;7078;-61
2023/10/07 04:34:01;;;;;;;;;;;;;;;27.05;42.69;95082.69;5053704;28;7439;-61
2023/10/07 04:36:38;;;;;;;;;;;;;;;27.07;43.10;95093.22;5078969;28;7073;-61
2023/10/07 04:39:18;;;;;;;;;;;;;;;27.06;42.93;95095.22;5061779;28;7064;-61
2023/10/07 04:42:03;;;;;;;;;;;;;;;27.06;42.30;95102.75;5058464;28;7058;-61
2023/10/07 04:52:42;;;;;;;;;;;;;;;27.04;43.19;95108.00;5055908;28;8818;-62
2023/10/07 04:55:11;;;;;;;;;;;;;;;27.04;43.01;95119.81;5046269;28;7009;-63
2023/10/07 05:03:19;;;;;;;;;;;;;;;27.03;43.16;95132.13;5070283;28;7579;-63
2023/10/07 05:05:46;;;;;;;;;;;;;;;27.03;43.03;95125.84;5086277;28;6981;-62
2023/10/07 05:08:16;;;;;;;;;;;;;;;27.02;42.96;95133.38;5043257;28;8449;-63
2023/10/07 05:10:50;;;;;;;;;;;;;;;27.02;42.76;95136.13;5069045;28;7514;-62
2023/10/07 05:13:16;;;;;;;;;;;;;;;27.01;42.90;95140.16;5070068;28;7006;-62
2023/10/07 05:15:42;;;;;;;;;;;;;;;27.01;43.03;95142.94;5048369;28;9059;-63
2023/10/07 05:18:12;;;;;;;;;;;;;;;27.01;42.94;95147.69;5077107;28;6992;-62
2023/10/07 05:20:42;;;;;;;;;;;;;;;26.99;43.14;95150.94;5041971;28;7270;-62
2023/10/07 05:23:14;;;;;;;;;;;;;;;27.00;42.95;95159.97;5059916;28;9074;-63
2023/10/07 05:25:48;;;;;;;;;;;;;;;26.97;42.97;95147.91;5078481;28;7267;-62
2023/10/07 05:28:21;;;;;;;;;;;;;;;26.98;43.52;95163.25;5059382;28;8767;-62
2023/10/07 05:30:52;;;;;;;;;;;;;;;26.99;43.02;95159.22;5060399;28;7238;-62
2023/10/07 05:33:28;;;;;;;;;;;;;;;26.99;43.03;95156.47;5048205;28;8506;-63
2023/10/07 05:36:04;;;;;;;;;;;;;;;26.98;42.89;95149.44;5054616;28;7044;-62
2023/10/07 05:38:30;;;;;;;;;;;;;;;26.98;43.04;95143.16;5068340;28;7345;-63
2023/10/07 05:41:00;;;;;;;;;;;;;;;26.95;43.09;95144.19;5087751;28;7255;-62
2023/10/07 05:43:28;;;;;;;;;;;;;;;26.96;43.26;95156.72;5068377;28;9046;-62
2023/10/07 05:45:55;;;;;;;;;;;;;;;26.92;43.34;95159.75;5063538;28;7310;-63
2023/10/07 05:48:21;;;;;;;;;;;;;;;26.93;43.23;95158.47;5053479;28;6981;-63
2023/10/07 05:50:48;;;;;;;;;;;;;;;26.94;43.14;95154.47;5080008;28;8856;-62
2023/10/07 05:53:17;;;;;;;;;;;;;;;26.94;43.00;95157.22;5066738;28;7277;-56
2023/10/07 05:55:42;;;;;;;;;;;;;;;26.95;43.11;95163.50;5063023;28;9096;-56
2023/10/07 05:58:08;;;;;;;;;;;;;;;26.96;43.24;95167.75;5065567;28;8717;-56
2023/10/07 06:00:38;;;;;;;;;;;;;;;26.95;43.46;95177.31;5053277;28;7159;-56
2023/10/07 06:03:12;;;;;;;;;;;;;;;26.95;42.93;95175.28;5074454;28;9313;-56
2023/10/07 06:05:38;;;;;;;;;;;;;;;26.95;43.10;95180.81;5047218;28;7163;-56
2023/10/07 06:08:07;;;;;;;;;;;;;;;26.97;43.01;95188.59;5058365;28;7255;-56
2023/10/07 06:10:37;;;;;;;;;;;;;;;26.94;42.67;95187.59;5059009;28;7496;-56
2023/10/07 06:13:10;;;;;;;;;;;;;;;26.93;43.25;95197.13;5033823;28;6946;-56
2023/10/07 06:15:39;;;;;;;;;;;;;;;26.95;43.24;95193.88;5047525;28;8907;-56
2023/10/07 06:18:06;;;;;;;;;;;;;;;26.94;42.94;95195.88;5058287;28;7334;-56
2023/10/07 06:20:46;;;;;;;;;;;;;;;26.92;42.96;95203.16;5052965;28;9378;-56
2023/10/07 06:23:14;;;;;;;;;;;;;;;26.90;43.36;95198.88;5046267;28;7665;-56
2023/10/07 06:26:09;;;;;;;;;;;;;;;26.92;43.33;95209.44;5051707;28;6899;-56
2023/10/07 06:28:43;;;;;;;;;;;;;;;26.92;43.39;95211.44;5045580;28;7299;-56
2023/10/07 06:31:22;;;;;;;;;;;;;;;26.91;42.76;95207.91;5070068;28;9443;-56
2023/10/07 06:34:12;;;;;;;;;;;;;;;26.90;43.23;95212.66;5054276;28;7008;-56
2023/10/07 06:36:40;;;;;;;;;;;;;;;26.89;43.24;95211.19;5073662;28;7463;-56
2023/10/07 06:39:15;;;;;;;;;;;;;;;26.90;43.51;95209.19;5056465;28;7245;-56
2023/10/07 06:41:46;;;;;;;;;;;;;;;26.91;43.60;95202.38;5054806;28;7424;-56
2023/10/07 06:44:27;;;;;;;;;;;;;;;26.90;43.08;95206.41;5054800;28;7643;-56
2023/10/07 06:46:56;;;;;;;;;;;;;;;26.90;43.09;95209.19;5058532;28;7359;-56
2023/10/07 06:49:34;;;;;;;;;;;;;;;26.87;42.90;95218.44;5045158;28;7215;-56
2023/10/07 06:52:05;;;;;;;;;;;;;;;26.91;42.99;95227.22;5056101;28;7210;-56
2023/10/07 06:54:42;;;;;;;;;;;;;;;26.86;42.80;95216.94;5049317;28;9244;-56
2023/10/07 06:57:11;;;;;;;;;;;;;;;26.87;43.05;95224.72;5042416;28;7277;-56
2023/10/07 06:59:40;;;;;;;;;;;;;;;26.86;43.22;95214.91;5040851;28;9050;-56
2023/10/07 07:02:11;;;;;;;;;;;;;;;26.85;42.83;95210.66;5070142;28;8847;-56
2023/10/07 07:04:41;;;;;;;;;;;;;;;26.87;42.90;95216.44;5056014;28;7267;-56
2023/10/07 07:07:10;;;;;;;;;;;;;;;26.85;43.25;95209.91;5046818;28;7305;-56
2023/10/07 07:12:17;;;;;;;;;;;;;;;26.84;43.13;95189.81;5063680;28;7287;-57
2023/10/07 07:14:52;;;;;;;;;;;;;;;26.85;43.37;95179.53;5057759;28;9107;-55
2023/10/07 07:17:29;;;;;;;;;;;;;;;26.86;43.49;95179.03;5047621;28;7334;-54
2023/10/07 07:22:46;;;;;;;;;;;;;;;26.87;42.76;95185.31;5064043;28;7849;-54
2023/10/07 07:25:36;;;;;;;;;;;;;;;26.87;43.22;95180.56;5078449;28;7218;-55
2023/10/07 07:28:04;;;;;;;;;;;;;;;26.86;43.14;95190.06;5069081;28;7248;-54
2023/10/07 07:30:35;;;;;;;;;;;;;;;26.86;43.14;95200.38;5058716;28;6981;-54
2023/10/07 07:33:08;;;;;;;;;;;;;;;26.86;43.57;95209.41;5070378;28;7294;-54
2023/10/07 07:35:56;;;;;;;;;;;;;;;26.85;43.12;95194.09;5053594;28;7150;-54
2023/10/07 07:38:32;;;;;;;;;;;;;;;26.86;43.23;95198.34;5049141;28;6985;-55
2023/10/07 07:41:05;;;;;;;;;;;;;;;26.85;43.22;95196.88;5062905;28;7258;-54
2023/10/07 07:43:43;;;;;;;;;;;;;;;26.87;42.76;95201.88;5052022;28;8808;-53
2023/10/07 07:46:18;;;;;;;;;;;;;;;26.88;43.05;95209.66;5062374;28;7050;-54
2023/10/07 07:48:55;;;;;;;;;;;;;;;26.88;43.01;95215.19;5061090;28;7053;-53
2023/10/07 07:51:25;;;;;;;;;;;;;;;26.88;43.18;95217.94;5050481;28;7265;-55
2023/10/07 07:53:58;;;;;;;;;;;;;;;26.89;42.75;95221.47;5052576;28;7236;-53
2023/10/07 07:56:25;;;;;;;;;;;;;;;26.88;42.69;95220.69;5051143;28;9270;-55
2023/10/07 07:58:55;;;;;;;;;;;;;;;26.88;43.05;95208.94;5061909;28;8512;-53
2023/10/07 08:01:28;;;;;;;;;;;;;;;26.90;42.94;95231.25;5053526;28;8803;-54
2023/10/07 08:04:09;;;;;;;;;;;;;;;26.90;42.64;95229.22;5054676;28;7219;-53
2023/10/07 08:07:04;;;;;;;;;;;;;;;26.92;42.72;95231.50;5056386;28;7824;-55
2023/10/07 08:09:37;;;;;;;;;;;;;;;26.92;42.78;95223.97;5070086;28;9023;-55
2023/10/07 08:12:09;;;;;;;;;;;;;;;26.93;42.72;95233.00;5062987;28;8762;-55
2023/10/07 08:17:45;;;;;;;;;;;;;;;26.94;42.64;95245.56;5070469;28;9135;-55
2023/10/07 08:20:12;;;;;;;;;;;;;;;26.92;42.79;95237.03;5066713;28;7229;-54
2023/10/07 08:22:46;;;;;;;;;;;;;;;26.92;42.36;95237.75;5057346;28;9063;-55
2023/10/07 08:25:37;;;;;;;;;;;;;;;26.92;42.70;95233.50;5051694;28;7233;-55
2023/10/07 08:30:53;;;;;;;;;;;;;;;26.91;42.91;95241.03;5065695;28;8662;-55
2023/10/07 08:33:22;;;;;;;;;;;;;;;26.92;42.89;95241.78;5058155;28;9020;-55
2023/10/07 08:35:52;;;;;;;;;;;;;;;26.93;42.77;95244.03;5082768;28;9432;-55
2023/10/07 08:38:37;;;;;;;;;;;;;;;26.91;42.65;95252.06;5041731;28;7333;-55
2023/10/07 08:41:05;;;;;;;;;;;;;;;26.89;42.77;95251.81;5072024;28;7065;-55
2023/10/07 08:43:37;;;;;;;;;;;;;;;26.90;42.80;95264.38;5056533;28;7290;-55
2023/10/07 08:46:09;;;;;;;;;;;;;;;26.93;42.87;95271.66;5065816;28;8784;-54
2023/10/07 08:48:39;;;;;;;;;;;;;;;26.92;42.85;95265.38;5055257;28;7870;-55
2023/10/07 08:51:17;;;;;;;;;;;;;;;26.93;42.63;95260.59;5058455;28;7589;-55
2023/10/07 08:53:47;;;;;;;;;;;;;;;26.91;42.50;95254.84;5077134;28;6989;-54
2023/10/07 08:56:17;;;;;;;;;;;;;;;26.93;42.61;95255.09;5050330;28;9710;-55
2023/10/07 08:58:44;;;;;;;;;;;;;;;26.87;42.55;95251.56;5056897;28;9390;-53
2023/10/07 09:01:17;;;;;;;;;;;;;;;26.90;42.85;95253.34;5082710;28;8557;-54
2023/10/07 09:03:48;;;;;;;;;;;;;;;26.91;42.40;95254.84;5048442;28;7175;-54
2023/10/07 09:06:19;;;;;;;;;;;;;;;26.93;42.60;95260.59;5040888;28;7037;-55
2023/10/07 09:09:35;;;;;;;;;;;;;;;26.92;42.45;95270.16;5065962;28;9570;-54
2023/10/07 09:12:08;;;;;;;;;;;;;;;26.92;42.77;95270.16;5011045;28;9088;-55
2023/10/07 09:14:34;;;;;;;;;;;;;;;26.92;42.84;95264.63;5026561;28;7656;-55
2023/10/07 09:17:09;;;;;;;;;;;;;;;26.90;42.46;95256.09;5024607;28;7950;-54
2023/10/07 09:19:36;;;;;;;;;;;;;;;26.90;42.70;95261.63;5010149;28;6990;-54
2023/10/07 09:22:10;;;;;;;;;;;;;;;26.89;42.64;95260.88;5019887;28;7470;-55
2023/10/07 09:24:42;;;;;;;;;;;;;;;26.92;42.55;95254.31;5013046;28;7232;-55
2023/10/07 09:27:38;;;;;;;;;;;;;;;26.93;42.78;95255.09;5002070;28;9127;-55
2023/10/07 09:33:06;;;;;;;;;;;;;;;26.91;42.65;95246.56;5017947;28;8767;-54
2023/10/07 09:35:47;;;;;;;;;;;;;;;26.89;43.09;95244.31;5011635;28;7045;-61
2023/10/07 09:38:34;;;;;;;;;;;;;;;26.89;42.71;95247.06;5016943;28;9445;-61
2023/10/07 09:43:57;;;;;;;;;;;;;;;26.87;42.76;95249.56;5039325;28;7359;-61
2023/10/07 09:47:10;;;;;;;;;;;;;;;26.90;42.57;95253.34;5006890;28;7231;-61
2023/10/07 09:49:58;;;;;;;;;;;;;;;26.91;42.53;95260.34;4983206;28;7148;-61
2023/10/07 09:52:29;;;;;;;;;;;;;;;26.91;42.63;95252.06;4984478;28;7058;-61
2023/10/07 09:55:56;;;;;;;;;;;;;;;26.93;42.63;95266.13;4994480;28;7231;-61
2023/10/07 09:58:36;;;;;;;;;;;;;;;26.94;42.84;95258.59;4945788;28;8283;-61
2023/10/07 10:01:44;;;;;;;;;;;;;;;26.92;43.22;95251.56;4948804;28;9456;-61
2023/10/07 10:04:43;;;;;;;;;;;;;;;26.95;42.26;95249.81;4939357;28;7074;-61
2023/10/07 10:07:39;;;;;;;;;;;;;;;26.93;42.52;95244.03;4951701;28;7112;-61
2023/10/07 10:10:13;;;;;;;;;;;;;;;26.93;42.74;95249.56;4948707;28;7105;-61
2023/10/07 10:17:48;;;;;;;;;;;;;;;26.98;42.45;95246.06;4952270;28;7114;-61
2023/10/07 10:20:43;;;;;;;;;;;;;;;26.99;42.44;95246.84;4936505;28;9396;-61
2023/10/07 10:23:33;;;;;;;;;;;;;;;27.01;42.82;95234.03;4951469;28;9918;-62
2023/10/07 10:26:24;;;;;;;;;;;;;;;27.02;42.46;95224.50;5001130;28;7213;-61
2023/10/07 10:29:04;;;;;;;;;;;;;;;27.01;42.30;95227.75;5016939;28;7282;-61
2023/10/07 10:31:36;;;;;;;;;;;;;;;27.02;42.65;95224.50;5072058;28;7306;-61
2023/10/07 10:34:05;;;;;;;;;;;;;;;27.03;42.50;95220.50;5046929;28;8863;-61
2023/10/07 10:36:38;;;;;;;;;;;;;;;27.05;42.70;95217.97;5046370;28;9150;-61
2023/10/07 10:39:31;;;;;;;;;;;;;;;27.06;42.60;95215.94;5078109;28;7314;-61
2023/10/07 10:42:24;;;;;;;;;;;;;;;27.06;42.23;95216.72;5056638;28;9213;-62
2023/10/07 10:44:59;;;;;;;;;;;;;;;27.09;42.44;95207.44;5041533;28;9116;-61
2023/10/07 10:47:26;;;;;;;;;;;;;;;27.08;42.57;95210.69;5076434;28;7279;-62
2023/10/07 10:49:58;;;;;;;;;;;;;;;27.10;42.13;95217.22;5054464;28;9126;-62
2023/10/07 10:52:27;;;;;;;;;;;;;;;27.11;42.09;95215.97;5039329;28;9286;-62
2023/10/07 10:55:15;;;;;;;;;;;;;;;27.12;42.31;95211.94;5081692;28;7049;-62
2023/10/07 10:57:43;;;;;;;;;;;;;;;27.11;42.55;95210.44;5066558;28;7275;-62
2023/10/07 11:00:24;;;;;;;;;;;;;;;27.14;42.19;95206.69;5061344;28;9024;-63
2023/10/07 11:02:51;;;;;;;;;;;;;;;27.15;42.76;95199.13;5053257;28;7640;-61
2023/10/07 11:05:18;;;;;;;;;;;;;;;27.17;41.87;95199.38;5060859;28;7000;-62
2023/10/07 11:07:49;;;;;;;;;;;;;;;27.17;41.98;95191.09;5036554;28;7250;-62
2023/10/07 11:10:22;;;;;;;;;;;;;;;27.17;42.10;95182.81;5074273;28;7113;-61
2023/10/07 11:12:56;;;;;;;;;;;;;;;27.17;42.06;95169.00;5050222;28;7223;-62
2023/10/07 11:15:29;;;;;;;;;;;;;;;27.20;42.27;95159.72;5053327;28;7419;-62
2023/10/07 11:18:14;;;;;;;;;;;;;;;27.18;42.28;95160.25;5052766;28;7420;-61
2023/10/07 11:20:43;;;;;;;;;;;;;;;27.21;42.26;95161.97;5058627;28;7368;-62
2023/10/07 11:23:21;;;;;;;;;;;;;;;27.20;42.26;95166.00;5052370;28;6992;-61
2023/10/07 11:25:58;;;;;;;;;;;;;;;27.20;42.33;95157.72;5076281;28;7622;-61
2023/10/07 11:28:33;;;;;;;;;;;;;;;27.21;42.35;95148.16;5071860;28;9216;-62
2023/10/07 11:31:00;;;;;;;;;;;;;;;27.21;42.26;95144.69;5049032;28;7445;-61
2023/10/07 11:33:49;;;;;;;;;;;;;;;27.21;42.04;95148.16;5065166;28;9051;-62
2023/10/07 11:36:16;;;;;;;;;;;;;;;27.20;42.15;95163.25;5057340;28;8636;-61
2023/10/07 11:38:45;;;;;;;;;;;;;;;27.19;42.38;95183.06;5046296;28;8079;-61
2023/10/07 11:41:16;;;;;;;;;;;;;;;27.21;42.62;95189.59;5089606;28;7608;-62
2023/10/07 11:44:03;;;;;;;;;;;;;;;27.20;42.78;95176.31;5053032;28;8767;-62
2023/10/07 11:46:37;;;;;;;;;;;;;;;27.21;41.89;95184.06;5041555;28;9076;-62
2023/10/07 11:49:08;;;;;;;;;;;;;;;27.19;42.38;95188.59;5077816;28;7274;-62
2023/10/07 11:51:54;;;;;;;;;;;;;;;27.20;42.54;95201.91;5069571;28;9029;-62
2023/10/07 11:54:24;;;;;;;;;;;;;;;27.18;42.61;95201.66;5060611;28;9157;-55
2023/10/07 11:57:06;;;;;;;;;;;;;;;27.20;42.50;95217.72;5057434;28;9036;-54
2023/10/07 11:59:42;;;;;;;;;;;;;;;27.22;42.36;95210.44;5051941;28;7048;-55
2023/10/07 12:02:10;;;;;;;;;;;;;;;27.22;42.51;95218.75;5038676;28;9251;-55
2023/10/07 12:04:48;;;;;;;;;;;;;;;27.26;42.54;95221.25;5085463;28;8745;-54
2023/10/07 12:07:16;;;;;;;;;;;;;;;27.27;42.27;95233.81;5078373;28;6894;-54
2023/10/07 12:09:47;;;;;;;;;;;;;;;27.29;42.54;95225.78;5045209;28;7232;-55
2023/10/07 12:12:15;;;;;;;;;;;;;;;27.29;42.37;95243.09;5040741;28;7233;-54
2023/10/07 12:14:47;;;;;;;;;;;;;;;27.31;42.44;95239.84;5078390;28;7194;-54
2023/10/07 12:17:16;;;;;;;;;;;;;;;27.35;42.36;95243.88;5057086;28;7128;-54
2023/10/07 12:19:45;;;;;;;;;;;;;;;27.33;42.43;95237.31;5029201;28;6978;-52
2023/10/07 12:22:44;;;;;;;;;;;;;;;27.40;42.29;95253.44;5064575;28;7033;-55
2023/10/07 12:25:35;;;;;;;;;;;;;;;27.38;42.53;95245.63;5013019;28;8756;-54
2023/10/07 12:28:10;;;;;;;;;;;;;;;27.36;42.74;95247.41;5009836;28;7227;-55
2023/10/07 12:30:39;;;;;;;;;;;;;;;27.39;42.47;95252.66;5021783;28;8727;-54
2023/10/07 12:33:37;;;;;;;;;;;;;;;27.39;42.62;95243.63;5020460;28;7418;-54
2023/10/07 12:36:22;;;;;;;;;;;;;;;27.39;42.41;95233.31;5011024;28;6994;-54
2023/10/07 12:38:49;;;;;;;;;;;;;;;27.42;42.33;95229.56;5000640;28;6878;-53
2023/10/07 12:41:16;;;;;;;;;;;;;;;27.43;41.88;95233.81;4993941;28;7232;-54
2023/10/07 12:43:44;;;;;;;;;;;;;;;27.44;42.43;95227.06;4993012;28;7156;-54
2023/10/07 12:46:20;;;;;;;;;;;;;;;27.48;42.36;95218.50;4991429;28;7860;-55
2023/10/07 12:48:57;;;;;;;;;;;;;;;27.54;42.17;95233.81;5000023;28;7340;-54
2023/10/07 12:51:31;;;;;;;;;;;;;;;27.57;42.21;95232.81;5004026;28;7192;-54
2023/10/07 12:54:00;;;;;;;;;;;;;;;27.58;42.12;95233.56;4990552;28;9006;-54
2023/10/07 12:56:31;;;;;;;;;;;;;;;27.60;42.26;95233.81;4995608;28;7284;-54
2023/10/07 12:58:57;;;;;;;;;;;;;;;27.60;42.10;95229.03;5012790;28;7151;-55
2023/10/07 13:01:23;;;;;;;;;;;;;;;27.60;42.52;95223.50;5014327;28;7222;-55
2023/10/07 13:04:01;;;;;;;;;;;;;;;27.59;42.34;95224.78;5026827;28;7247;-56
2023/10/07 13:06:42;;;;;;;;;;;;;;;27.66;42.92;95237.34;5022829;28;7254;-57
2023/10/07 13:09:16;;;;;;;;;;;;;;;27.68;42.16;95234.81;5031340;28;7062;-56
2023/10/07 13:11:47;;;;;;;;;;;;;;;27.63;42.38;95230.81;5027930;28;7176;-56
2023/10/07 13:14:16;;;;;;;;;;;;;;;27.71;42.67;95230.31;5069752;28;7471;-56
2023/10/07 13:16:45;;;;;;;;;;;;;;;27.71;42.52;95233.78;5060560;28;7411;-56
2023/10/07 13:19:13;;;;;;;;;;;;;;;27.72;42.33;95229.03;5069864;28;6996;-57
2023/10/07 13:21:42;;;;;;;;;;;;;;;27.72;42.19;95223.50;5055195;28;7073;-56
2023/10/07 13:24:11;;;;;;;;;;;;;;;27.73;42.03;95222.97;5063746;28;9000;-56
2023/10/07 13:26:56;;;;;;;;;;;;;;;27.73;42.35;95225.75;5070503;28;7001;-56
2023/10/07 13:29:34;;;;;;;;;;;;;;;27.71;42.43;95224.78;5062064;28;6986;-56
2023/10/07 13:32:47;;;;;;;;;;;;;;;27.73;42.49;95222.25;5048035;28;8679;-56
2023/10/07 13:35:27;;;;;;;;;;;;;;;27.69;42.13;95221.75;5013015;28;7251;-56
2023/10/07 13:37:56;;;;;;;;;;;;;;;27.71;41.99;95216.47;5030814;28;9149;-56
2023/10/07 13:40:47;;;;;;;;;;;;;;;27.73;42.47;95222.25;5023761;28;7231;-56
2023/10/07 13:43:13;;;;;;;;;;;;;;;27.74;42.60;95218.22;5024936;28;7548;-56
2023/10/07 13:45:47;;;;;;;;;;;;;;;27.75;42.32;95216.97;5034848;28;9200;-56
2023/10/07 13:48:30;;;;;;;;;;;;;;;27.75;42.48;95212.19;5024392;28;8995;-56
2023/10/07 13:51:10;;;;;;;;;;;;;;;27.82;41.89;95208.16;5024942;28;7828;-57
2023/10/07 13:56:54;;;;;;;;;;;;;;;27.78;42.85;95204.88;5030823;28;8440;-56
2023/10/07 13:59:23;;;;;;;;;;;;;;;27.87;42.69;95210.16;5016242;28;7237;-56
2023/10/07 14:01:52;;;;;;;;;;;;;;;27.90;42.71;95211.91;5024875;28;7085;-56
2023/10/07 14:04:25;;;;;;;;;;;;;;;27.94;42.35;95212.41;5030575;28;7325;-57
2023/10/07 14:07:00;;;;;;;;;;;;;;;27.95;42.10;95214.66;5013056;28;7312;-56
2023/10/07 14:09:31;;;;;;;;;;;;;;;27.97;42.66;95214.91;5030690;28;7243;-56
2023/10/07 14:12:09;;;;;;;;;;;;;;;28.00;42.86;95221.44;5017549;28;7166;-56
2023/10/07 14:14:39;;;;;;;;;;;;;;;28.01;42.00;95220.22;5073592;28;8610;-64
2023/10/07 14:17:20;;;;;;;;;;;;;;;28.06;42.04;95230.47;5085419;28;9259;-64
2023/10/07 14:19:58;;;;;;;;;;;;;;;28.06;42.21;95220.19;5053881;28;7179;-65
2023/10/07 14:22:40;;;;;;;;;;;;;;;28.07;42.17;95221.69;5037199;28;7404;-65
2023/10/07 14:25:24;;;;;;;;;;;;;;;28.08;41.96;95219.66;5053172;28;8913;-65
2023/10/07 14:28:05;;;;;;;;;;;;;;;28.14;42.10;95214.88;5043536;28;7073;-65
2023/10/07 14:30:41;;;;;;;;;;;;;;;28.19;42.07;95225.16;5072058;28;7086;-65
2023/10/07 14:33:07;;;;;;;;;;;;;;;28.21;42.29;95219.88;5054564;28;7192;-65
2023/10/07 14:35:56;;;;;;;;;;;;;;;28.27;41.66;95217.84;5063710;28;9854;-65
2023/10/07 14:38:30;;;;;;;;;;;;;;;28.31;42.43;95223.88;5046926;28;8948;-64
2023/10/07 14:40:58;;;;;;;;;;;;;;;28.34;42.03;95225.59;5071893;28;8700;-65
2023/10/07 14:43:43;;;;;;;;;;;;;;;28.35;41.28;95224.34;5067973;28;6970;-65
2023/10/07 14:46:44;;;;;;;;;;;;;;;28.38;42.02;95226.84;5069929;28;9174;-65
2023/10/07 14:49:23;;;;;;;;;;;;;;;28.40;42.10;95212.53;5020374;28;7662;-65
2023/10/07 14:51:51;;;;;;;;;;;;;;;28.43;41.88;95208.00;5033731;28;7261;-65